Time;durP1;ratioP1;P1;durP2;ratioP2;P2;SDS_P1;SDS_P2;PMS_P1;PMS_P2;Temp;Humidity;BMP_temperature;BMP_pressure;BME280_temperature;BME280_humidity;BME280_pressure;Samples;Min_cycle;Max_cycle;Signal;HPM_P1;HPM_P2
2023/07/01 00:01:30;;;;;;;4.00;3.70;;;14.40;99.90;;;;;;5058422;28;20169;-85
2023/07/01 00:03:56;;;;;;;3.87;3.20;;;14.30;99.80;;;;;;5041061;28;20181;-84
2023/07/01 00:06:21;;;;;;;3.40;3.07;;;14.10;97.90;;;;;;5041472;28;20178;-84
2023/07/01 00:08:48;;;;;;;3.30;3.00;;;14.10;99.90;;;;;;5059066;28;20230;-83
2023/07/01 00:11:13;;;;;;;3.10;2.90;;;14.10;99.90;;;;;;5041454;28;20189;-84
2023/07/01 00:13:39;;;;;;;3.93;3.50;;;14.00;99.90;;;;;;5040733;28;20261;-84
2023/07/01 00:16:05;;;;;;;3.53;3.23;;;13.90;99.90;;;;;;5040696;28;20624;-86
2023/07/01 00:18:31;;;;;;;4.17;3.50;;;13.90;99.90;;;;;;5041160;28;20177;-84
2023/07/01 00:20:56;;;;;;;3.40;3.10;;;13.70;99.90;;;;;;5040899;28;20618;-84
2023/07/01 00:23:22;;;;;;;3.10;2.90;;;13.70;99.90;;;;;;5059481;28;20185;-84
2023/07/01 00:25:48;;;;;;;4.57;3.33;;;13.60;77.90;;;;;;5059394;28;20212;-84
2023/07/01 00:28:13;;;;;;;5.60;3.13;;;13.50;99.90;;;;;;5040599;28;20212;-85
2023/07/01 00:30:39;;;;;;;4.83;3.20;;;13.40;99.90;;;;;;5040731;28;20276;-83
2023/07/01 00:33:07;;;;;;;3.37;3.07;;;13.30;99.90;;;;;;5059679;28;20181;-83
2023/07/01 00:35:33;;;;;;;3.77;3.40;;;13.30;99.90;;;;;;5060109;28;20169;-84
2023/07/01 00:37:59;;;;;;;3.50;3.20;;;13.40;99.90;;;;;;5057965;28;20664;-83
2023/07/01 00:40:25;;;;;;;3.73;3.30;;;13.40;99.90;;;;;;5059465;28;20265;-84
2023/07/01 00:42:50;;;;;;;3.80;3.50;;;13.40;99.90;;;;;;5041550;28;20196;-83
2023/07/01 00:45:16;;;;;;;3.40;3.10;;;13.40;99.90;;;;;;5059360;28;20193;-84
2023/07/01 00:47:42;;;;;;;5.50;3.33;;;13.20;99.90;;;;;;5041545;28;20255;-84
2023/07/01 00:50:12;;;;;;;5.13;3.27;;;13.20;99.90;;;;;;5059485;28;20197;-84
2023/07/01 00:52:39;;;;;;;3.80;3.50;;;13.20;99.90;;;;;;5059862;28;20315;-84
2023/07/01 00:55:07;;;;;;;4.77;3.27;;;13.30;69.90;;;;;;5041412;28;20173;-84
2023/07/01 00:57:33;;;;;;;4.13;3.40;;;13.20;76.80;;;;;;5042331;28;20209;-84
2023/07/01 01:00:00;;;;;;;2.53;2.33;;;13.20;99.90;;;;;;5041200;28;20284;-84
2023/07/01 01:02:30;;;;;;;70.27;5.67;;;13.10;99.90;;;;;;5060368;28;20178;-83
2023/07/01 01:05:10;;;;;;;3.60;3.30;;;13.10;99.90;;;;;;5060330;28;20232;-83
2023/07/01 01:08:00;;;;;;;4.73;3.33;;;13.20;99.90;;;;;;5060265;28;20272;-83
2023/07/01 01:10:27;;;;;;;5.37;3.30;;;13.30;99.90;;;;;;5059730;28;20649;-85
2023/07/01 01:12:57;;;;;;;4.10;3.70;;;13.20;99.90;;;;;;5042863;28;20181;-84
2023/07/01 01:15:27;;;;;;;93.67;10.63;;;13.20;99.90;;;;;;5060695;28;20181;-84
2023/07/01 01:17:56;;;;;;;47.80;21.10;;;13.30;99.90;;;;;;5042571;28;20177;-84
2023/07/01 01:20:23;;;;;;;41.07;21.73;;;13.10;99.90;;;;;;5042658;28;20202;-84
2023/07/01 01:22:57;;;;;;;11.93;10.07;;;13.20;99.90;;;;;;5061260;28;20739;-84
2023/07/01 01:25:28;;;;;;;3.07;2.63;;;13.10;99.90;;;;;;5043067;28;20695;-84
2023/07/01 01:27:56;;;;;;;92.43;27.00;;;13.10;99.90;;;;;;5043481;28;20209;-84
2023/07/01 01:30:23;;;;;;;1999.90;999.90;;;13.00;99.90;;;;;;5042949;28;20201;-84
2023/07/01 01:32:49;;;;;;;2.10;1.70;;;12.90;99.90;;;;;;5062506;28;20178;-83
2023/07/01 01:35:14;;;;;;;2.80;2.10;;;12.80;99.90;;;;;;5062228;28;20207;-84
2023/07/01 01:37:51;;;;;;;2.30;1.70;;;12.80;99.90;;;;;;5061277;28;20221;-86
2023/07/01 01:40:56;;;;;;;2.10;1.77;;;12.90;99.90;;;;;;5062300;28;20200;-85
2023/07/01 01:43:38;;;;;;;2.73;1.83;;;12.90;99.90;;;;;;5048100;28;20181;-84
2023/07/01 01:46:05;;;;;;;54.30;48.77;;;12.80;99.90;;;;;;5042941;28;20169;-84
2023/07/01 01:48:31;;;;;;;2.30;2.10;;;12.80;99.90;;;;;;5038369;28;20201;-84
2023/07/01 01:50:58;;;;;;;2.33;2.13;;;12.80;99.90;;;;;;5055572;28;20204;-84
2023/07/01 01:53:26;;;;;;;2.40;1.83;;;12.80;99.90;;;;;;5038074;28;20173;-83
2023/07/01 01:55:53;;;;;;;1.70;1.30;;;12.70;57.20;;;;;;5056131;28;20231;-83
2023/07/01 01:58:19;;;;;;;1.60;1.50;;;12.80;99.90;;;;;;5038588;28;20200;-83
2023/07/01 02:00:47;;;;;;;1333.70;667.00;;;12.80;1.00;;;;;;5037253;28;20197;-83
2023/07/01 02:03:13;;;;;;;33.10;9.27;;;12.60;1.00;;;;;;5056142;28;20209;-84
2023/07/01 02:05:39;;;;;;;4.10;3.70;;;12.50;99.90;;;;;;5056536;28;20178;-83
2023/07/01 02:08:05;;;;;;;4.50;3.73;;;12.50;99.90;;;;;;5038346;28;20456;-84
2023/07/01 02:10:32;;;;;;;3.83;3.53;;;12.60;99.90;;;;;;5037627;28;20216;-83
2023/07/01 02:12:59;;;;;;;12.67;8.03;;;12.70;99.90;;;;;;5060159;28;20227;-84
2023/07/01 02:15:24;;;;;;;3.90;3.50;;;12.80;99.90;;;;;;5060044;28;20173;-84
2023/07/01 02:17:50;;;;;;;4.37;3.07;;;12.80;7.90;;;;;;5041986;28;20184;-84
2023/07/01 02:20:16;;;;;;;3.93;3.27;;;12.70;1.00;;;;;;5041204;28;20193;-83
2023/07/01 02:22:42;;;;;;;4.00;3.47;;;12.60;22.10;;;;;;5042467;28;20182;-85
2023/07/01 02:25:08;;;;;;;4.30;3.60;;;12.60;71.30;;;;;;5042365;28;20177;-83
2023/07/01 02:27:33;;;;;;;4.40;3.50;;;12.40;99.90;;;;;;5041987;28;20212;-84
2023/07/01 02:29:59;;;;;;;3.80;3.40;;;12.40;99.90;;;;;;5058957;28;20220;-83
2023/07/01 02:32:25;;;;;;;3.93;3.40;;;12.50;99.90;;;;;;5042425;28;20181;-83
2023/07/01 02:34:51;;;;;;;4.63;3.97;;;12.40;41.10;;;;;;5041999;28;20566;-83
2023/07/01 02:37:17;;;;;;;4.40;3.50;;;12.50;99.90;;;;;;5058889;28;20291;-83
2023/07/01 02:39:45;;;;;;;3.70;3.40;;;12.40;92.00;;;;;;5041662;28;20271;-85
2023/07/01 02:42:11;;;;;;;3.57;3.27;;;12.30;99.90;;;;;;5042227;28;20268;-83
2023/07/01 02:44:37;;;;;;;4.20;3.60;;;12.30;99.90;;;;;;5041471;28;20220;-85
2023/07/01 02:47:03;;;;;;;3.87;3.50;;;12.20;99.90;;;;;;5041670;28;20174;-83
2023/07/01 02:49:28;;;;;;;4.30;3.37;;;12.30;99.90;;;;;;5059823;28;20189;-83
2023/07/01 02:51:54;;;;;;;4.13;3.67;;;12.30;57.40;;;;;;5041337;28;20640;-84
2023/07/01 02:54:19;;;;;;;4.73;3.50;;;12.30;62.90;;;;;;5059968;28;20174;-84
2023/07/01 02:56:45;;;;;;;4.07;3.30;;;12.40;93.00;;;;;;5059735;28;20177;-84
2023/07/01 02:59:11;;;;;;;3.47;2.97;;;12.40;56.90;;;;;;5041594;28;20742;-83
2023/07/01 03:01:37;;;;;;;167.87;8.40;;;12.40;18.60;;;;;;5041763;28;20180;-83
2023/07/01 03:04:06;;;;;;;9.77;4.47;;;12.40;83.10;;;;;;5042172;28;20177;-84
2023/07/01 03:06:35;;;;;;;3.93;3.53;;;12.40;99.90;;;;;;5060058;28;20200;-84
2023/07/01 03:09:03;;;;;;;3.87;3.57;;;12.30;99.90;;;;;;5041707;28;20201;-83
2023/07/01 03:11:29;;;;;;;4.03;3.23;;;12.40;99.90;;;;;;5058766;28;20566;-83
2023/07/01 03:13:54;;;;;;;4.10;3.70;;;12.40;99.90;;;;;;5041955;28;20169;-83
2023/07/01 03:16:20;;;;;;;3.57;3.27;;;12.30;99.90;;;;;;5042044;28;20597;-83
2023/07/01 03:18:46;;;;;;;5.13;3.80;;;12.30;99.90;;;;;;5059976;28;20174;-85
2023/07/01 03:21:12;;;;;;;5.27;3.40;;;12.30;99.90;;;;;;5041095;28;20230;-84
2023/07/01 03:23:37;;;;;;;4.90;3.63;;;12.40;99.90;;;;;;5040423;28;20169;-84
2023/07/01 03:26:03;;;;;;;3.87;3.50;;;12.50;99.90;;;;;;5042458;28;20183;-84
2023/07/01 03:28:28;;;;;;;3.70;3.40;;;12.50;92.00;;;;;;5059682;28;20236;-83
2023/07/01 03:30:54;;;;;;;3.63;3.33;;;12.60;99.70;;;;;;5059673;28;20189;-84
2023/07/01 03:33:20;;;;;;;3.80;3.43;;;12.50;1.00;;;;;;5042322;28;20257;-84
2023/07/01 03:35:46;;;;;;;3.70;3.40;;;12.40;80.40;;;;;;5041979;28;20174;-84
2023/07/01 03:38:13;;;;;;;3.83;3.47;;;12.40;38.00;;;;;;5059464;28;20176;-84
2023/07/01 03:40:39;;;;;;;3.87;3.47;;;12.40;99.90;;;;;;5058549;28;20200;-83
2023/07/01 03:43:04;;;;;;;2.87;2.60;;;12.30;98.80;;;;;;5041748;28;20538;-84
2023/07/01 03:45:30;;;;;;;5.03;3.97;;;12.30;99.90;;;;;;5041840;28;20170;-84
2023/07/01 03:47:55;;;;;;;4.50;3.87;;;12.30;99.90;;;;;;5042677;28;20202;-84
2023/07/01 03:50:21;;;;;;;2.37;1.47;;;12.40;99.90;;;;;;5041590;28;20281;-84
2023/07/01 03:52:46;;;;;;;2.50;2.30;;;12.40;99.90;;;;;;5042658;28;20182;-84
2023/07/01 03:55:13;;;;;;;1.30;1.20;;;12.40;99.90;;;;;;5042543;28;20177;-84
2023/07/01 03:57:39;;;;;;;4.07;2.57;;;12.40;99.90;;;;;;5042075;28;20245;-83
2023/07/01 04:00:08;;;;;;;2.30;2.07;;;12.40;99.90;;;;;;5041515;28;20248;-84
2023/07/01 04:02:35;;;;;;;4.00;2.20;;;12.40;99.90;;;;;;5060548;28;20177;-83
2023/07/01 04:05:09;;;;;;;2.53;1.90;;;12.40;99.90;;;;;;5060582;28;20655;-83
2023/07/01 04:07:36;;;;;;;2.63;2.33;;;12.50;99.90;;;;;;5042384;28;20201;-83
2023/07/01 04:10:04;;;;;;;2.77;2.47;;;12.50;99.90;;;;;;5041397;28;20201;-84
2023/07/01 04:12:30;;;;;;;2.50;2.30;;;12.50;99.90;;;;;;5042968;28;20165;-84
2023/07/01 04:14:55;;;;;;;3.13;2.83;;;12.60;99.90;;;;;;5043542;28;20547;-84
2023/07/01 04:17:21;;;;;;;4.03;2.77;;;12.70;99.90;;;;;;5043158;28;20554;-83
2023/07/01 04:19:46;;;;;;;4.37;2.50;;;12.80;99.90;;;;;;5042284;28;20284;-84
2023/07/01 04:22:12;;;;;;;3.17;2.47;;;12.80;99.90;;;;;;5042717;28;20173;-83
2023/07/01 04:24:38;;;;;;;3.50;2.70;;;12.80;99.90;;;;;;5043206;28;20166;-84
2023/07/01 04:27:04;;;;;;;3.43;2.93;;;12.70;99.90;;;;;;5061406;28;20241;-84
2023/07/01 04:29:30;;;;;;;3.70;3.00;;;12.60;99.90;;;;;;5043188;28;20217;-82
2023/07/01 04:31:55;;;;;;;6.00;4.33;;;12.60;99.90;;;;;;5043038;28;20188;-85
2023/07/01 04:34:21;;;;;;;6.30;4.23;;;12.70;99.90;;;;;;5061848;28;20177;-84
2023/07/01 04:36:46;;;;;;;4.57;3.70;;;12.60;99.90;;;;;;5042110;28;20231;-84
2023/07/01 04:39:12;;;;;;;3.83;3.50;;;12.70;99.90;;;;;;5043554;28;20279;-84
2023/07/01 04:41:38;;;;;;;4.87;3.90;;;12.70;99.90;;;;;;5042951;28;20190;-84
2023/07/01 04:44:05;;;;;;;4.10;3.70;;;12.70;99.90;;;;;;5044680;28;20177;-84
2023/07/01 04:46:32;;;;;;;4.03;3.70;;;12.80;99.90;;;;;;5044198;28;20169;-84
2023/07/01 04:48:59;;;;;;;6.03;4.27;;;12.90;99.90;;;;;;5062602;28;20216;-85
2023/07/01 04:51:25;;;;;;;5.07;4.33;;;12.90;99.90;;;;;;5062686;28;20174;-84
2023/07/01 04:53:51;;;;;;;4.17;3.83;;;13.10;99.90;;;;;;5044923;28;20586;-84
2023/07/01 04:56:16;;;;;;;5.67;4.33;;;13.20;99.90;;;;;;5063539;28;20174;-85
2023/07/01 04:58:42;;;;;;;4.73;4.30;;;13.30;99.90;;;;;;5063447;28;20212;-85
2023/07/01 05:01:08;;;;;;;5.10;4.60;;;13.50;99.90;;;;;;5045422;28;20188;-85
2023/07/01 05:03:33;;;;;;;6.17;5.23;;;13.70;99.90;;;;;;5045708;28;20185;-85
2023/07/01 05:05:59;;;;;;;6.70;6.03;;;13.90;99.90;;;;;;5046782;28;20185;-84
2023/07/01 05:08:24;;;;;;;5.73;5.23;;;14.10;99.90;;;;;;5064646;28;20209;-85
2023/07/01 05:10:50;;;;;;;5.73;5.13;;;14.30;99.90;;;;;;5056400;28;20205;-87
2023/07/01 05:13:16;;;;;;;5.63;5.13;;;14.40;99.90;;;;;;5038272;28;20169;-87
2023/07/01 05:15:41;;;;;;;5.93;5.40;;;14.40;99.90;;;;;;5037520;28;20220;-86
2023/07/01 05:18:07;;;;;;;6.30;5.40;;;14.50;99.90;;;;;;5038548;28;20181;-86
2023/07/01 05:20:33;;;;;;;7.50;5.47;;;14.60;99.90;;;;;;5037020;28;20201;-87
2023/07/01 05:22:59;;;;;;;7.33;5.50;;;14.60;99.90;;;;;;5037337;28;20242;-87
2023/07/01 05:25:24;;;;;;;7.00;5.43;;;14.70;99.90;;;;;;5037707;28;20181;-87
2023/07/01 05:27:50;;;;;;;7.23;4.87;;;14.80;99.90;;;;;;5056011;28;20197;-87
2023/07/01 05:30:15;;;;;;;6.57;5.30;;;14.90;99.90;;;;;;5037157;28;20190;-87
2023/07/01 05:32:41;;;;;;;4.37;3.97;;;14.90;99.90;;;;;;5055669;28;20177;-87
2023/07/01 05:35:07;;;;;;;3.73;3.30;;;15.00;99.90;;;;;;5037907;28;20214;-87
2023/07/01 05:37:32;;;;;;;4.87;3.33;;;15.10;99.90;;;;;;5054869;28;20184;-87
2023/07/01 05:39:58;;;;;;;3.57;3.27;;;15.10;99.90;;;;;;5055107;28;20209;-87
2023/07/01 05:42:23;;;;;;;3.40;2.80;;;15.20;89.20;;;;;;5037286;28;20204;-87
2023/07/01 05:44:49;;;;;;;4.00;3.50;;;15.30;1.00;;;;;;5037259;28;20633;-87
2023/07/01 05:47:14;;;;;;;2.37;1.90;;;15.40;1.00;;;;;;5036603;28;20227;-87
2023/07/01 05:49:40;;;;;;;2.90;2.30;;;15.70;99.90;;;;;;5036935;28;20205;-87
2023/07/01 05:52:06;;;;;;;2.80;2.10;;;15.80;99.90;;;;;;5055509;28;20265;-87
2023/07/01 05:54:32;;;;;;;2.73;2.53;;;16.00;1.00;;;;;;5038115;28;20174;-87
2023/07/01 05:56:57;;;;;;;2.87;2.17;;;16.20;1.00;;;;;;5056009;28;20178;-87
2023/07/01 05:59:23;;;;;;;3.10;2.40;;;16.40;99.90;;;;;;5038319;28;20200;-87
2023/07/01 06:01:48;;;;;;;5.17;2.60;;;16.60;1.00;;;;;;5055828;28;20184;-87
2023/07/01 06:04:14;;;;;;;3.40;2.27;;;16.60;1.00;;;;;;5037819;28;20602;-87
2023/07/01 06:06:40;;;;;;;2.87;2.30;;;16.70;1.00;;;;;;5056696;28;20178;-87
2023/07/01 06:11:37;;;;;;;3.73;2.37;;;16.80;1.00;;;;;;5075910;22;20236;-82
2023/07/01 06:14:02;;;;;;;6.77;2.60;;;17.00;1.00;;;;;;5034680;28;20169;-82
2023/07/01 06:16:28;;;;;;;2.67;2.47;;;17.10;1.00;;;;;;5034529;28;20169;-82
2023/07/01 06:18:53;;;;;;;4.47;2.30;;;17.20;1.00;;;;;;5052218;28;20174;-82
2023/07/01 06:21:19;;;;;;;3.80;2.33;;;17.30;1.00;;;;;;5033752;28;20304;-82
2023/07/01 06:23:45;;;;;;;2.90;2.47;;;17.40;1.00;;;;;;5034667;28;20201;-82
2023/07/01 06:26:10;;;;;;;3.23;2.20;;;17.40;99.90;;;;;;5034242;28;20522;-82
2023/07/01 06:28:36;;;;;;;3.33;2.10;;;17.50;1.00;;;;;;5034093;28;20216;-81
2023/07/01 06:31:01;;;;;;;2.93;2.00;;;17.70;1.00;;;;;;5034116;28;20716;-82
2023/07/01 06:33:27;;;;;;;3.70;2.30;;;17.80;1.00;;;;;;5052155;28;20169;-82
2023/07/01 06:35:52;;;;;;;2.40;2.03;;;17.90;93.60;;;;;;5034368;28;20702;-82
2023/07/01 06:38:18;;;;;;;2.83;2.20;;;18.00;1.00;;;;;;5051020;28;20237;-82
2023/07/01 06:40:44;;;;;;;3.67;2.30;;;18.10;1.00;;;;;;5051808;28;20622;-82
2023/07/01 06:43:09;;;;;;;2.43;2.23;;;18.10;22.80;;;;;;5052124;28;20170;-82
2023/07/01 06:45:36;;;;;;;4.50;2.80;;;18.10;54.80;;;;;;5052740;28;20181;-81
2023/07/01 06:48:01;;;;;;;3.03;2.40;;;18.20;1.00;;;;;;5052155;28;20200;-81
2023/07/01 06:50:27;;;;;;;2.90;2.63;;;18.20;55.50;;;;;;5033727;28;20186;-82
2023/07/01 06:52:53;;;;;;;4.03;2.30;;;18.30;29.60;;;;;;5034443;28;20201;-81
2023/07/01 06:55:19;;;;;;;4.03;2.60;;;18.30;99.90;;;;;;5034204;28;20196;-81
2023/07/01 06:57:44;;;;;;;3.30;2.50;;;18.30;1.00;;;;;;5053985;28;20178;-82
2023/07/01 07:00:12;;;;;;;4.17;2.40;;;18.40;1.00;;;;;;5055091;28;20572;-82
2023/07/01 07:02:38;;;;;;;4.03;2.37;;;18.40;99.90;;;;;;5037751;28;20178;-81
2023/07/01 07:05:08;;;;;;;2.97;2.53;;;18.50;1.00;;;;;;5055775;28;20182;-82
2023/07/01 07:07:34;;;;;;;5.17;2.27;;;18.60;62.80;;;;;;5037602;28;20202;-82
2023/07/01 07:09:59;;;;;;;4.10;2.30;;;18.70;99.90;;;;;;5037061;28;20216;-83
2023/07/01 07:12:26;;;;;;;3.27;2.20;;;18.80;1.00;;;;;;5037852;28;20170;-81
2023/07/01 07:14:52;;;;;;;6.30;2.37;;;19.00;1.00;;;;;;5037952;28;20220;-82
2023/07/01 07:17:18;;;;;;;2.20;1.90;;;19.10;1.00;;;;;;5055835;28;20174;-81
2023/07/01 07:19:43;;;;;;;3.30;2.03;;;19.20;1.00;;;;;;5037297;28;20201;-82
2023/07/01 07:22:09;;;;;;;3.70;2.30;;;19.20;99.90;;;;;;5055552;28;20197;-82
2023/07/01 07:24:34;;;;;;;2.60;2.27;;;19.20;99.90;;;;;;5055600;28;20197;-82
2023/07/01 07:27:01;;;;;;;4.37;2.60;;;19.20;99.90;;;;;;5037531;28;20640;-81
2023/07/01 07:29:28;;;;;;;3.87;2.60;;;19.30;99.90;;;;;;5054989;28;20697;-82
2023/07/01 07:31:55;;;;;;;2.50;2.30;;;19.40;99.90;;;;;;5036943;28;20185;-81
2023/07/01 07:34:21;;;;;;;3.73;2.20;;;19.40;1.00;;;;;;5037510;28;20181;-81
2023/07/01 07:36:46;;;;;;;3.83;2.20;;;19.50;1.00;;;;;;5053698;28;20178;-81
2023/07/01 07:39:13;;;;;;;3.10;2.10;;;19.60;1.00;;;;;;5037168;28;20212;-81
2023/07/01 07:41:39;;;;;;;4.27;2.07;;;19.70;1.00;;;;;;5036647;28;20169;-83
2023/07/01 07:44:05;;;;;;;3.30;2.27;;;19.70;1.00;;;;;;5054961;28;20174;-82
2023/07/01 07:46:32;;;;;;;3.13;2.23;;;19.70;1.00;;;;;;5054933;28;20534;-82
2023/07/01 07:48:57;;;;;;;5.43;2.10;;;19.70;1.00;;;;;;5036873;28;20205;-82
2023/07/01 07:51:23;;;;;;;3.27;2.27;;;19.90;1.00;;;;;;5036137;28;20190;-82
2023/07/01 07:53:48;;;;;;;5.28;2.17;;;20.00;1.00;;;;;;5055176;28;20220;-81
2023/07/01 07:56:14;;;;;;;2.78;2.05;;;20.10;1.00;;;;;;5055612;28;20166;-81
2023/07/01 07:58:39;;;;;;;2.20;1.95;;;20.10;1.00;;;;;;5054871;28;20165;-82
2023/07/01 08:01:05;;;;;;;3.75;1.95;;;20.00;1.00;;;;;;5036227;28;20193;-81
2023/07/01 08:03:30;;;;;;;3.35;2.30;;;20.00;1.00;;;;;;5054613;28;20186;-82
2023/07/01 08:05:56;;;;;;;3.30;2.15;;;19.90;1.00;;;;;;5054661;28;20181;-82
2023/07/01 08:08:22;;;;;;;2.47;2.05;;;20.00;1.00;;;;;;5036421;28;20206;-82
2023/07/01 08:10:48;;;;;;;5.88;2.22;;;19.80;1.00;;;;;;5054031;28;20288;-81
2023/07/01 08:13:14;;;;;;;3.92;2.65;;;19.70;1.00;;;;;;5054528;28;20252;-81
2023/07/01 08:15:41;;;;;;;3.00;2.17;;;19.60;1.00;;;;;;5036705;28;20170;-81
2023/07/01 08:18:08;;;;;;;3.37;2.50;;;19.60;1.00;;;;;;5036438;28;20173;-82
2023/07/01 08:20:33;;;;;;;4.85;2.30;;;19.80;1.00;;;;;;5036062;28;20200;-81
2023/07/01 08:22:59;;;;;;;3.42;2.45;;;20.10;1.00;;;;;;5054411;28;20173;-82
2023/07/01 08:25:25;;;;;;;4.07;2.13;;;20.10;1.00;;;;;;5054168;28;20170;-82
2023/07/01 08:27:50;;;;;;;3.15;2.20;;;20.10;1.00;;;;;;5036599;28;20197;-82
2023/07/01 08:30:16;;;;;;;4.03;2.30;;;20.20;1.00;;;;;;5053627;28;20569;-82
2023/07/01 08:32:42;;;;;;;4.25;2.00;;;20.20;99.90;;;;;;5036275;28;20223;-82
2023/07/01 08:35:08;;;;;;;2.72;2.08;;;20.40;99.90;;;;;;5036428;28;20184;-81
2023/07/01 08:37:34;;;;;;;2.80;1.98;;;20.70;99.90;;;;;;5034997;28;20181;-82
2023/07/01 08:40:00;;;;;;;5.85;2.13;;;20.90;99.90;;;;;;5053109;28;20208;-81
2023/07/01 08:42:40;;;;;;;5.13;1.65;;;21.10;99.90;;;;;;5035899;28;20180;-83
2023/07/01 08:45:07;;;;;;;4.65;2.13;;;21.10;2.10;;;;;;5054414;28;20173;-82
2023/07/01 08:47:33;;;;;;;3.03;1.80;;;21.10;1.00;;;;;;5035928;28;20194;-81
2023/07/01 08:50:00;;;;;;;3.47;1.90;;;21.00;1.00;;;;;;5053407;28;20190;-82
2023/07/01 08:52:29;;;;;;;5.30;2.30;;;20.90;1.00;;;;;;5036028;28;20183;-82
2023/07/01 08:54:54;;;;;;;3.60;2.05;;;21.00;9.90;;;;;;5054009;28;20205;-81
2023/07/01 08:57:20;;;;;;;3.65;1.80;;;21.10;1.00;;;;;;5055061;28;20200;-82
2023/07/01 08:59:50;;;;;;;2.58;1.80;;;21.40;1.00;;;;;;5053715;28;20264;-81
2023/07/01 09:02:15;;;;;;;2.95;1.90;;;21.60;1.00;;;;;;5054098;28;20170;-82
2023/07/01 09:04:41;;;;;;;3.63;2.40;;;21.80;1.00;;;;;;5053650;28;20212;-82
2023/07/01 09:07:08;;;;;;;4.05;2.03;;;21.70;1.00;;;;;;5036017;28;20170;-82
2023/07/01 09:09:34;;;;;;;4.20;1.70;;;21.80;1.00;;;;;;5053580;28;20281;-82
2023/07/01 09:11:59;;;;;;;6.07;2.03;;;21.60;1.00;;;;;;5053630;28;20192;-82
2023/07/01 09:14:25;;;;;;;3.78;1.85;;;21.40;1.00;;;;;;5036093;28;20234;-81
2023/07/01 09:16:51;;;;;;;3.97;1.88;;;21.50;1.00;;;;;;5036213;28;20539;-83
2023/07/01 09:19:22;;;;;;;2.78;1.90;;;21.50;1.00;;;;;;5053457;28;20170;-82
2023/07/01 09:21:47;;;;;;;4.35;1.90;;;21.30;1.00;;;;;;5052266;28;20173;-82
2023/07/01 09:24:13;;;;;;;2.83;1.90;;;21.50;1.00;;;;;;5037130;28;20176;-81
2023/07/01 09:26:39;;;;;;;3.53;1.92;;;21.60;1.00;;;;;;5054494;28;20173;-81
2023/07/01 09:29:15;;;;;;;3.38;1.90;;;21.70;1.00;;;;;;5054162;28;20208;-81
2023/07/01 09:31:50;;;;;;;4.15;2.00;;;22.00;1.00;;;;;;5035691;28;20174;-81
2023/07/01 09:34:17;;;;;;;2.40;2.00;;;22.20;1.00;;;;;;5053745;28;20173;-81
2023/07/01 09:36:43;;;;;;;5.05;2.30;;;22.60;1.00;;;;;;5052783;28;20165;-82
2023/07/01 09:39:09;;;;;;;4.53;2.30;;;22.70;99.90;;;;;;5036075;28;20269;-81
2023/07/01 09:41:35;;;;;;;3.40;1.90;;;22.50;1.00;;;;;;5053334;28;20637;-82
2023/07/01 09:44:13;;;;;;;4.25;2.30;;;22.40;1.00;;;;;;5035750;28;20181;-82
2023/07/01 09:46:43;;;;;;;5.15;1.80;;;22.50;1.00;;;;;;5053684;28;20174;-82
2023/07/01 09:49:09;;;;;;;2.33;2.00;;;22.50;99.90;;;;;;5035610;28;20229;-82
2023/07/01 09:51:48;;;;;;;6.53;2.03;;;22.20;1.00;;;;;;5053359;28;20213;-82
2023/07/01 09:54:24;;;;;;;2.25;1.80;;;22.00;1.00;;;;;;5035933;28;20176;-82
2023/07/01 09:56:51;;;;;;;4.93;2.00;;;21.90;1.00;;;;;;5035621;28;20169;-82
2023/07/01 09:59:16;;;;;;;6.55;2.28;;;21.90;1.00;;;;;;5035266;28;20177;-82
2023/07/01 10:01:42;;;;;;;3.60;2.38;;;21.90;1.00;;;;;;5052507;28;20181;-82
2023/07/01 10:04:08;;;;;;;5.13;2.47;;;21.70;1.00;;;;;;5053132;28;20178;-81
2023/07/01 10:06:34;;;;;;;5.25;2.70;;;21.50;1.00;;;;;;5035540;28;20174;-81
2023/07/01 10:09:00;;;;;;;4.78;2.20;;;21.50;1.00;;;;;;5035678;28;20214;-82
2023/07/01 10:11:26;;;;;;;2.83;2.22;;;21.50;1.00;;;;;;5053826;28;20205;-81
2023/07/01 10:13:54;;;;;;;2.55;1.92;;;21.40;1.00;;;;;;5041177;28;20176;-81
2023/07/01 10:16:20;;;;;;;17.83;2.42;;;21.40;1.00;;;;;;5056039;28;20170;-81
2023/07/01 10:18:46;;;;;;;5.47;2.40;;;21.40;1.00;;;;;;5053550;28;20185;-81
2023/07/01 10:21:25;;;;;;;3.38;2.30;;;21.40;1.00;;;;;;5035408;28;20197;-81
2023/07/01 10:23:56;;;;;;;4.05;2.03;;;21.40;1.00;;;;;;5035077;28;20204;-82
2023/07/01 10:26:47;;;;;;;3.03;2.30;;;21.30;1.00;;;;;;5035564;28;20174;-81
2023/07/01 10:29:28;;;;;;;2.90;2.28;;;21.40;17.90;;;;;;5035427;28;20232;-81
2023/07/01 10:32:09;;;;;;;4.28;2.40;;;21.30;1.00;;;;;;5053531;28;20241;-82
2023/07/01 10:34:53;;;;;;;4.50;1.92;;;21.20;1.00;;;;;;5039505;28;20549;-81
2023/07/01 10:37:20;;;;;;;2.90;1.90;;;21.10;36.00;;;;;;5038938;28;20195;-81
2023/07/01 10:39:46;;;;;;;3.60;2.10;;;21.10;99.90;;;;;;5057141;28;20198;-81
2023/07/01 10:42:31;;;;;;;2.63;2.17;;;21.10;99.90;;;;;;5062388;28;20162;-81
2023/07/01 10:45:16;;;;;;;3.67;2.15;;;21.20;99.90;;;;;;5042251;28;20612;-82
2023/07/01 10:48:02;;;;;;;4.10;2.10;;;21.10;99.90;;;;;;5024978;28;20198;-81
2023/07/01 10:50:28;;;;;;;3.10;2.08;;;21.00;99.90;;;;;;5041388;28;20284;-81
2023/07/01 10:52:57;;;;;;;4.53;1.90;;;20.90;99.90;;;;;;5038681;28;20621;-81
2023/07/01 10:55:49;;;;;;;2.63;1.90;;;20.90;99.90;;;;;;5056742;28;20633;-81
2023/07/01 10:58:24;;;;;;;5.47;1.95;;;21.00;99.90;;;;;;5038814;28;20179;-81
2023/07/01 11:00:52;;;;;;;2.67;1.75;;;21.10;1.00;;;;;;5037802;28;20201;-82
2023/07/01 11:03:36;;;;;;;2.97;1.70;;;21.00;1.00;;;;;;5056205;28;20166;-81
2023/07/01 11:06:06;;;;;;;4.20;1.80;;;21.00;1.00;;;;;;5038255;28;20259;-81
2023/07/01 11:08:35;;;;;;;4.47;1.85;;;21.00;1.00;;;;;;5038197;28;20202;-81
2023/07/01 11:11:00;;;;;;;2.45;1.83;;;21.10;1.00;;;;;;5055879;28;20632;-81
2023/07/01 11:13:26;;;;;;;2.63;1.70;;;21.00;1.00;;;;;;5056371;28;20659;-81
2023/07/01 11:16:07;;;;;;;2.55;1.83;;;21.00;1.00;;;;;;5056156;28;20652;-82
2023/07/01 11:18:50;;;;;;;3.97;2.40;;;21.00;1.00;;;;;;5038578;28;20264;-81
2023/07/01 11:21:20;;;;;;;29.08;13.85;;;21.10;1.00;;;;;;5055583;28;20217;-81
2023/07/01 11:23:55;;;;;;;2.97;1.80;;;21.10;1.00;;;;;;5055846;28;20205;-81
2023/07/01 11:26:25;;;;;;;4.72;1.73;;;21.20;1.00;;;;;;5055656;28;20204;-81
2023/07/01 11:28:51;;;;;;;2.35;1.50;;;21.20;1.00;;;;;;5037902;28;20197;-82
2023/07/01 11:31:18;;;;;;;1.63;1.50;;;21.10;1.00;;;;;;5055722;28;20194;-81
2023/07/01 11:33:54;;;;;;;2.75;1.63;;;21.10;3.90;;;;;;5056171;28;20173;-82
2023/07/01 11:36:43;;;;;;;1.70;1.60;;;21.10;1.00;;;;;;5055726;28;20627;-80
2023/07/01 11:39:14;;;;;;;2.92;1.60;;;21.00;1.00;;;;;;5038157;28;20189;-80
2023/07/01 11:41:43;;;;;;;3.75;1.75;;;21.00;1.00;;;;;;5055808;28;20184;-81
2023/07/01 11:44:11;;;;;;;2.05;1.80;;;20.90;51.60;;;;;;5037387;28;20233;-82
2023/07/01 11:46:39;;;;;;;2.20;1.80;;;20.70;79.50;;;;;;5057223;28;20192;-81
2023/07/01 11:49:14;;;;;;;2.67;1.65;;;20.60;99.90;;;;;;5056247;28;20205;-81
2023/07/01 11:51:41;;;;;;;3.03;1.92;;;20.60;99.90;;;;;;5056330;28;20169;-81
2023/07/01 11:54:07;;;;;;;3.03;1.88;;;20.50;99.90;;;;;;5056308;28;20173;-81
2023/07/01 11:56:33;;;;;;;2.47;1.90;;;20.50;1.00;;;;;;5038019;28;20200;-82
2023/07/01 11:58:58;;;;;;;3.63;1.70;;;20.50;1.00;;;;;;5056060;28;20660;-81
2023/07/01 12:01:28;;;;;;;2.13;1.77;;;20.30;99.90;;;;;;5055020;28;20193;-81
2023/07/01 12:03:54;;;;;;;3.35;2.00;;;20.20;1.00;;;;;;5038188;28;20201;-82
2023/07/01 12:06:22;;;;;;;3.30;1.73;;;20.20;1.00;;;;;;5055479;28;20170;-82
2023/07/01 12:08:55;;;;;;;3.15;2.00;;;20.10;1.00;;;;;;5055507;28;20213;-83
2023/07/01 12:11:22;;;;;;;4.07;2.03;;;20.00;99.90;;;;;;5039205;28;20201;-81
2023/07/01 12:13:48;;;;;;;3.28;2.08;;;19.70;99.90;;;;;;5055370;28;20531;-82
2023/07/01 12:16:15;;;;;;;5.47;2.20;;;19.60;1.00;;;;;;5038038;28;20178;-81
2023/07/01 12:18:40;;;;;;;2.90;1.98;;;19.50;1.00;;;;;;5037816;28;20181;-82
2023/07/01 12:21:06;;;;;;;2.70;1.88;;;19.40;99.90;;;;;;5055010;28;20248;-82
2023/07/01 12:23:44;;;;;;;3.47;2.10;;;19.20;1.00;;;;;;5055563;28;20170;-81
2023/07/01 12:26:13;;;;;;;2.77;2.00;;;19.10;99.90;;;;;;5037071;28;20185;-81
2023/07/01 12:28:40;;;;;;;4.43;1.90;;;19.00;1.00;;;;;;5054588;28;20205;-81
2023/07/01 12:31:07;;;;;;;3.42;2.15;;;19.00;99.90;;;;;;5055179;28;20221;-82
2023/07/01 12:33:34;;;;;;;2.57;2.10;;;19.00;1.00;;;;;;5055656;28;20181;-81
2023/07/01 12:35:59;;;;;;;2.83;1.90;;;19.10;99.90;;;;;;5055420;28;20170;-81
2023/07/01 12:38:26;;;;;;;2.57;1.73;;;19.10;55.30;;;;;;5036704;28;20204;-82
2023/07/01 12:40:54;;;;;;;2.93;2.00;;;19.20;1.00;;;;;;5036417;28;20584;-82
2023/07/01 12:43:21;;;;;;;3.20;2.00;;;19.10;1.00;;;;;;5055291;28;20193;-82
2023/07/01 12:45:48;;;;;;;2.00;1.70;;;19.10;1.00;;;;;;5036888;28;20177;-81
2023/07/01 12:48:14;;;;;;;3.53;2.10;;;19.00;1.00;;;;;;5054562;28;20204;-82
2023/07/01 12:50:40;;;;;;;4.17;1.97;;;19.00;99.90;;;;;;5036485;28;20189;-81
2023/07/01 12:53:06;;;;;;;3.40;1.90;;;18.90;99.90;;;;;;5054251;28;20229;-81
2023/07/01 12:55:31;;;;;;;2.37;2.10;;;18.70;1.00;;;;;;5035899;28;20169;-81